sensor_id;sensor_type;location;lat;lon;timestamp;pressure;altitude;pressure_sealevel;temperature;humidity
54122;BME280;40029;58.708;50.190;2023-04-03T00:00:58;100422.63;;;4.29;44.98
54122;BME280;40029;58.708;50.190;2023-04-03T00:03:29;100417.44;;;4.33;45.48
54122;BME280;40029;58.708;50.190;2023-04-03T00:06:00;100455.28;;;4.48;44.84
54122;BME280;40029;58.708;50.190;2023-04-03T00:08:31;100456.16;;;4.47;44.78
54122;BME280;40029;58.708;50.190;2023-04-03T00:11:03;100463.88;;;4.48;45.17
54122;BME280;40029;58.708;50.190;2023-04-03T00:13:35;100459.59;;;4.38;44.88
54122;BME280;40029;58.708;50.190;2023-04-03T00:16:08;100448.44;;;4.38;45.02
54122;BME280;40029;58.708;50.190;2023-04-03T00:18:39;100458.72;;;4.44;44.92
54122;BME280;40029;58.708;50.190;2023-04-03T00:21:13;100458.72;;;4.44;45.79
54122;BME280;40029;58.708;50.190;2023-04-03T00:23:44;100406.31;;;4.07;45.40
54122;BME280;40029;58.708;50.190;2023-04-03T00:26:15;100367.69;;;3.81;45.48
54122;BME280;40029;58.708;50.190;2023-04-03T00:28:47;100428.66;;;4.15;45.01
54122;BME280;40029;58.708;50.190;2023-04-03T00:31:18;100445.84;;;4.30;45.51
54122;BME280;40029;58.708;50.190;2023-04-03T00:33:48;100430.41;;;4.21;44.86
54122;BME280;40029;58.708;50.190;2023-04-03T00:36:20;100408.91;;;4.02;45.61
54122;BME280;40029;58.708;50.190;2023-04-03T00:38:51;100414.09;;;4.04;45.26
54122;BME280;40029;58.708;50.190;2023-04-03T00:41:22;100453.56;;;4.32;45.25
54122;BME280;40029;58.708;50.190;2023-04-03T00:43:53;100408.03;;;4.11;45.35
54122;BME280;40029;58.708;50.190;2023-04-03T00:46:24;100390.00;;;4.06;45.21
54122;BME280;40029;58.708;50.190;2023-04-03T00:48:55;100401.16;;;4.14;45.52
54122;BME280;40029;58.708;50.190;2023-04-03T00:51:27;100455.25;;;4.53;45.57
54122;BME280;40029;58.708;50.190;2023-04-03T00:54:01;100419.19;;;4.30;45.28
54122;BME280;40029;58.708;50.190;2023-04-03T00:56:33;100396.88;;;4.07;45.51
54122;BME280;40029;58.708;50.190;2023-04-03T00:59:17;100463.91;;;4.39;45.93
54122;BME280;40029;58.708;50.190;2023-04-03T01:01:53;100422.63;;;4.19;46.25
54122;BME280;40029;58.708;50.190;2023-04-03T01:04:28;100463.03;;;4.40;45.54
54122;BME280;40029;58.708;50.190;2023-04-03T01:07:27;100444.94;;;4.48;45.68
54122;BME280;40029;58.708;50.190;2023-04-03T01:10:03;100449.25;;;4.41;45.78
54122;BME280;40029;58.708;50.190;2023-04-03T01:12:37;100444.09;;;4.40;46.35
54122;BME280;40029;58.708;50.190;2023-04-03T01:15:19;100406.31;;;4.16;46.01
54122;BME280;40029;58.708;50.190;2023-04-03T01:17:55;100446.69;;;4.43;46.38
54122;BME280;40029;58.708;50.190;2023-04-03T01:24:05;100428.63;;;4.43;46.40
54122;BME280;40029;58.708;50.190;2023-04-03T01:26:16;100441.53;;;4.43;46.39
54122;BME280;40029;58.708;50.190;2023-04-03T01:28:47;100406.28;;;4.28;46.10
54122;BME280;40029;58.708;50.190;2023-04-03T01:31:24;100390.84;;;4.22;46.17
54122;BME280;40029;58.708;50.190;2023-04-03T01:33:58;100431.19;;;4.46;46.33
54122;BME280;40029;58.708;50.190;2023-04-03T01:36:30;100426.06;;;4.43;46.40
54122;BME280;40029;58.708;50.190;2023-04-03T01:39:02;100425.19;;;4.42;46.45
54122;BME280;40029;58.708;50.190;2023-04-03T01:41:34;100390.84;;;4.16;46.06
54122;BME280;40029;58.708;50.190;2023-04-03T01:44:13;100396.00;;;4.14;45.86
54122;BME280;40029;58.708;50.190;2023-04-03T01:46:44;100390.88;;;4.13;46.31
54122;BME280;40029;58.708;50.190;2023-04-03T01:49:16;100446.69;;;4.43;46.21
54122;BME280;40029;58.708;50.190;2023-04-03T01:51:47;100401.13;;;4.20;45.79
54122;BME280;40029;58.708;50.190;2023-04-03T01:54:19;100417.47;;;4.32;45.91
54122;BME280;40029;58.708;50.190;2023-04-03T01:56:50;100416.63;;;4.34;45.76
54122;BME280;40029;58.708;50.190;2023-04-03T01:59:22;100441.50;;;4.55;45.88
54122;BME280;40029;58.708;50.190;2023-04-03T02:01:54;100416.56;;;4.45;46.50
54122;BME280;40029;58.708;50.190;2023-04-03T02:04:26;100374.47;;;4.34;46.44
54122;BME280;40029;58.708;50.190;2023-04-03T02:06:57;100377.03;;;4.38;46.51
54122;BME280;40029;58.708;50.190;2023-04-03T02:09:29;100424.25;;;4.66;46.36
54122;BME280;40029;58.708;50.190;2023-04-03T02:12:00;100419.03;;;4.75;46.42
54122;BME280;40029;58.708;50.190;2023-04-03T02:14:31;100376.13;;;4.53;45.87
54122;BME280;40029;58.708;50.190;2023-04-03T02:17:02;100371.81;;;4.55;45.78
54122;BME280;40029;58.708;50.190;2023-04-03T02:19:35;100424.19;;;4.89;46.22
54122;BME280;40029;58.708;50.190;2023-04-03T02:22:07;100370.09;;;4.56;45.70
54122;BME280;40029;58.708;50.190;2023-04-03T02:24:38;100409.56;;;4.82;46.07
54122;BME280;40029;58.708;50.190;2023-04-03T02:27:11;100379.47;;;4.73;46.00
54122;BME280;40029;58.708;50.190;2023-04-03T02:29:42;100415.53;;;4.95;45.64
54122;BME280;40029;58.708;50.190;2023-04-03T02:32:13;100436.13;;;5.07;45.46
54122;BME280;40029;58.708;50.190;2023-04-03T02:34:44;100383.78;;;4.78;45.71
54122;BME280;40029;58.708;50.190;2023-04-03T02:37:17;100383.75;;;4.81;45.85
54122;BME280;40029;58.708;50.190;2023-04-03T02:39:51;100436.09;;;5.16;45.57
54122;BME280;40029;58.708;50.190;2023-04-03T02:42:22;100393.97;;;5.00;45.76
54122;BME280;40029;58.708;50.190;2023-04-03T02:44:53;100442.03;;;5.35;45.37
54122;BME280;40029;58.708;50.190;2023-04-03T02:47:24;100384.47;;;5.07;45.21
54122;BME280;40029;58.708;50.190;2023-04-03T02:49:55;100381.00;;;5.13;45.40
54122;BME280;40029;58.708;50.190;2023-04-03T02:52:26;100391.25;;;5.22;45.69
54122;BME280;40029;58.708;50.190;2023-04-03T02:55:00;100438.41;;;5.61;45.53
54122;BME280;40029;58.708;50.190;2023-04-03T02:57:31;100402.34;;;5.44;45.28
54122;BME280;40029;58.708;50.190;2023-04-03T03:00:03;100444.31;;;5.75;45.55
54122;BME280;40029;58.708;50.190;2023-04-03T03:02:34;100441.72;;;5.76;45.87
54122;BME280;40029;58.708;50.190;2023-04-03T03:05:06;100430.56;;;5.71;45.61
54122;BME280;40029;58.708;50.190;2023-04-03T03:07:38;100435.66;;;5.81;44.99
54122;BME280;40029;58.708;50.190;2023-04-03T03:10:09;100420.19;;;5.76;45.20
54122;BME280;40029;58.708;50.190;2023-04-03T03:12:40;100433.88;;;5.89;45.13
54122;BME280;40029;58.708;50.190;2023-04-03T03:15:12;100376.31;;;5.64;45.14
54122;BME280;40029;58.708;50.190;2023-04-03T03:17:43;100415.84;;;5.83;44.77
54122;BME280;40029;58.708;50.190;2023-04-03T03:20:14;100368.59;;;5.62;45.06
54122;BME280;40029;58.708;50.190;2023-04-03T03:22:46;100365.03;;;5.75;45.11
54122;BME280;40029;58.708;50.190;2023-04-03T03:25:17;100373.63;;;5.79;44.58
54122;BME280;40029;58.708;50.190;2023-04-03T03:27:48;100359.88;;;5.72;44.87
54122;BME280;40029;58.708;50.190;2023-04-03T03:30:19;100407.91;;;6.04;44.08
54122;BME280;40029;58.708;50.190;2023-04-03T03:32:51;100392.38;;;6.03;44.38
54122;BME280;40029;58.708;50.190;2023-04-03T03:35:23;100407.84;;;6.10;44.00
54122;BME280;40029;58.708;50.190;2023-04-03T03:37:54;100421.53;;;6.21;44.13
54122;BME280;40029;58.708;50.190;2023-04-03T03:40:26;100388.16;;;5.94;43.86
54122;BME280;40029;58.708;50.190;2023-04-03T03:42:57;100372.59;;;5.98;44.11
54122;BME280;40029;58.708;50.190;2023-04-03T03:45:29;100366.44;;;6.10;43.76
54122;BME280;40029;58.708;50.190;2023-04-03T03:48:02;100417.88;;;6.42;43.51
54122;BME280;40029;58.708;50.190;2023-04-03T03:50:33;100419.53;;;6.48;43.77
54122;BME280;40029;58.708;50.190;2023-04-03T03:53:05;100360.25;;;6.26;43.56
54122;BME280;40029;58.708;50.190;2023-04-03T03:55:36;100416.84;;;6.57;43.56
54122;BME280;40029;58.708;50.190;2023-04-03T03:58:08;100394.47;;;6.55;43.35
54122;BME280;40029;58.708;50.190;2023-04-03T04:00:40;100360.03;;;6.46;43.25
54122;BME280;40029;58.708;50.190;2023-04-03T04:03:11;100399.44;;;6.71;43.04
54122;BME280;40029;58.708;50.190;2023-04-03T04:05:43;100366.72;;;6.64;43.26
54122;BME280;40029;58.708;50.190;2023-04-03T04:08:14;100419.03;;;6.91;43.29
54122;BME280;40029;58.708;50.190;2023-04-03T04:10:45;100433.53;;;7.06;43.15
54122;BME280;40029;58.708;50.190;2023-04-03T04:13:19;100428.31;;;7.09;42.90
54122;BME280;40029;58.708;50.190;2023-04-03T04:15:50;100411.88;;;7.11;42.78
54122;BME280;40029;58.708;50.190;2023-04-03T04:18:22;100430.63;;;7.29;43.03
54122;BME280;40029;58.708;50.190;2023-04-03T04:20:53;100412.56;;;7.24;42.82
54122;BME280;40029;58.708;50.190;2023-04-03T04:23:26;100433.13;;;7.36;43.05
54122;BME280;40029;58.708;50.190;2023-04-03T04:25:57;100406.44;;;7.28;42.53
54122;BME280;40029;58.708;50.190;2023-04-03T04:28:28;100393.63;;;7.17;42.81
54122;BME280;40029;58.708;50.190;2023-04-03T04:31:02;100421.09;;;7.32;43.16
54122;BME280;40029;58.708;50.190;2023-04-03T04:33:33;100426.97;;;7.42;42.93
54122;BME280;40029;58.708;50.190;2023-04-03T04:36:07;100375.34;;;7.28;42.42
54122;BME280;40029;58.708;50.190;2023-04-03T04:38:40;100424.06;;;7.65;42.15
54122;BME280;40029;58.708;50.190;2023-04-03T04:41:11;100383.75;;;7.44;42.28
54122;BME280;40029;58.708;50.190;2023-04-03T04:43:42;100386.34;;;7.42;42.09
54122;BME280;40029;58.708;50.190;2023-04-03T04:46:15;100384.69;;;7.40;42.40
54122;BME280;40029;58.708;50.190;2023-04-03T04:48:52;100417.00;;;7.73;41.69
54122;BME280;40029;58.708;50.190;2023-04-03T04:51:25;100346.72;;;7.36;41.60
54122;BME280;40029;58.708;50.190;2023-04-03T04:53:56;100440.06;;;7.90;41.43
54122;BME280;40029;58.708;50.190;2023-04-03T04:56:28;100448.56;;;7.99;41.68
54122;BME280;40029;58.708;50.190;2023-04-03T04:59:01;100393.75;;;7.67;41.60
54122;BME280;40029;58.708;50.190;2023-04-03T05:01:32;100398.63;;;7.87;41.50
54122;BME280;40029;58.708;50.190;2023-04-03T05:04:12;100433.69;;;8.09;41.44
54122;BME280;40029;58.708;50.190;2023-04-03T05:06:44;100444.72;;;8.22;41.51
54122;BME280;40029;58.708;50.190;2023-04-03T05:09:20;100350.44;;;7.72;41.02
54122;BME280;40029;58.708;50.190;2023-04-03T05:11:52;100413.78;;;8.10;41.27
54122;BME280;40029;58.708;50.190;2023-04-03T05:14:27;100430.81;;;8.26;41.11
54122;BME280;40029;58.708;50.190;2023-04-03T05:17:01;100439.28;;;8.36;41.31
54122;BME280;40029;58.708;50.190;2023-04-03T05:19:34;100433.09;;;8.44;40.64
54122;BME280;40029;58.708;50.190;2023-04-03T05:22:06;100430.50;;;8.46;40.52
54122;BME280;40029;58.708;50.190;2023-04-03T05:24:37;100388.38;;;8.27;40.22
54122;BME280;40029;58.708;50.190;2023-04-03T05:27:09;100378.75;;;8.32;40.58
54122;BME280;40029;58.708;50.190;2023-04-03T05:29:43;100424.03;;;8.65;40.18
54122;BME280;40029;58.708;50.190;2023-04-03T05:32:18;100421.50;;;8.62;40.08
54122;BME280;40029;58.708;50.190;2023-04-03T05:34:53;100384.56;;;8.48;40.35
54122;BME280;40029;58.708;50.190;2023-04-03T05:37:24;100387.91;;;8.55;40.44
54122;BME280;40029;58.708;50.190;2023-04-03T05:39:57;100387.75;;;8.61;39.85
54122;BME280;40029;58.708;50.190;2023-04-03T05:42:28;100401.31;;;8.76;40.04
54122;BME280;40029;58.708;50.190;2023-04-03T05:45:00;100406.56;;;8.73;40.22
54122;BME280;40029;58.708;50.190;2023-04-03T05:47:31;100422.00;;;8.81;39.80
54122;BME280;40029;58.708;50.190;2023-04-03T05:50:04;100410.81;;;8.77;40.28
54122;BME280;40029;58.708;50.190;2023-04-03T05:52:37;100427.00;;;8.90;39.75
54122;BME280;40029;58.708;50.190;2023-04-03T05:55:09;100399.53;;;8.79;40.08
54122;BME280;40029;58.708;50.190;2023-04-03T05:57:41;100375.63;;;8.63;39.62
54122;BME280;40029;58.708;50.190;2023-04-03T06:00:14;100426.00;;;8.96;39.78
54122;BME280;40029;58.708;50.190;2023-04-03T06:02:50;100419.75;;;9.06;39.58
54122;BME280;40029;58.708;50.190;2023-04-03T06:05:26;100414.56;;;9.06;39.45
54122;BME280;40029;58.708;50.190;2023-04-03T06:07:58;100360.63;;;8.75;39.65
54122;BME280;40029;58.708;50.190;2023-04-03T06:10:29;100411.91;;;9.09;39.44
54122;BME280;40029;58.708;50.190;2023-04-03T06:13:01;100427.88;;;9.31;39.70
54122;BME280;40029;58.708;50.190;2023-04-03T06:15:33;100369.28;;;9.15;39.50
54122;BME280;40029;58.708;50.190;2023-04-03T06:18:05;100367.69;;;9.09;38.99
54122;BME280;40029;58.708;50.190;2023-04-03T06:20:39;100412.16;;;9.36;38.76
54122;BME280;40029;58.708;50.190;2023-04-03T06:23:10;100417.16;;;9.45;38.62
54122;BME280;40029;58.708;50.190;2023-04-03T06:25:41;100387.84;;;9.37;39.29
54122;BME280;40029;58.708;50.190;2023-04-03T06:28:12;100424.94;;;9.82;38.35
54122;BME280;40029;58.708;50.190;2023-04-03T06:30:43;100413.69;;;9.82;38.29
54122;BME280;40029;58.708;50.190;2023-04-03T06:33:14;100408.19;;;9.92;38.23
54122;BME280;40029;58.708;50.190;2023-04-03T06:35:46;100378.72;;;9.92;37.79
54122;BME280;40029;58.708;50.190;2023-04-03T06:38:17;100404.72;;;10.27;37.94
54122;BME280;40029;58.708;50.190;2023-04-03T06:40:49;100416.22;;;10.51;37.41
54122;BME280;40029;58.708;50.190;2023-04-03T06:43:20;100416.81;;;10.63;37.91
54122;BME280;40029;58.708;50.190;2023-04-03T06:45:52;100414.44;;;10.85;36.75
54122;BME280;40029;58.708;50.190;2023-04-03T06:48:23;100413.31;;;10.93;36.82
54122;BME280;40029;58.708;50.190;2023-04-03T06:50:54;100414.72;;;11.05;37.22
54122;BME280;40029;58.708;50.190;2023-04-03T06:53:25;100349.47;;;10.77;36.66
54122;BME280;40029;58.708;50.190;2023-04-03T06:55:55;100370.28;;;11.08;36.31
54122;BME280;40029;58.708;50.190;2023-04-03T06:58:26;100417.47;;;11.57;35.58
54122;BME280;40029;58.708;50.190;2023-04-03T07:00:57;100420.00;;;11.60;35.29
54122;BME280;40029;58.708;50.190;2023-04-03T07:03:28;100375.19;;;11.45;36.06
54122;BME280;40029;58.708;50.190;2023-04-03T07:05:59;100405.31;;;11.84;35.34
54122;BME280;40029;58.708;50.190;2023-04-03T07:08:30;100409.34;;;11.94;35.29
54122;BME280;40029;58.708;50.190;2023-04-03T07:11:02;100365.22;;;11.86;34.81
54122;BME280;40029;58.708;50.190;2023-04-03T07:13:33;100363.38;;;11.88;34.75
54122;BME280;40029;58.708;50.190;2023-04-03T07:16:05;100365.50;;;12.02;34.10
54122;BME280;40029;58.708;50.190;2023-04-03T07:18:37;100410.50;;;12.37;34.63
54122;BME280;40029;58.708;50.190;2023-04-03T07:21:08;100358.84;;;12.18;33.70
54122;BME280;40029;58.708;50.190;2023-04-03T07:23:39;100413.22;;;12.57;34.01
54122;BME280;40029;58.708;50.190;2023-04-03T07:26:10;100410.34;;;12.65;34.36
54122;BME280;40029;58.708;50.190;2023-04-03T07:28:41;100404.94;;;12.69;33.69
54122;BME280;40029;58.708;50.190;2023-04-03T07:31:12;100397.84;;;12.73;33.50
54122;BME280;40029;58.708;50.190;2023-04-03T07:33:47;100364.13;;;12.65;33.72
54122;BME280;40029;58.708;50.190;2023-04-03T07:36:20;100396.28;;;12.91;33.84
54122;BME280;40029;58.708;50.190;2023-04-03T07:38:51;100398.81;;;12.94;33.01
54122;BME280;40029;58.708;50.190;2023-04-03T07:41:22;100394.69;;;13.10;33.24
54122;BME280;40029;58.708;50.190;2023-04-03T07:43:54;100386.84;;;13.10;33.26
54122;BME280;40029;58.708;50.190;2023-04-03T07:46:25;100304.38;;;12.78;32.67
54122;BME280;40029;58.708;50.190;2023-04-03T07:48:56;100392.78;;;13.37;32.10
54122;BME280;40029;58.708;50.190;2023-04-03T07:51:27;100357.63;;;13.22;31.96
54122;BME280;40029;58.708;50.190;2023-04-03T07:54:00;100347.81;;;13.28;32.18
54122;BME280;40029;58.708;50.190;2023-04-03T07:56:31;100351.47;;;13.45;32.13
54122;BME280;40029;58.708;50.190;2023-04-03T07:59:02;100303.97;;;13.34;31.69
54122;BME280;40029;58.708;50.190;2023-04-03T08:01:33;100382.34;;;13.80;31.77
54122;BME280;40029;58.708;50.190;2023-04-03T08:04:04;100363.88;;;13.62;31.30
54122;BME280;40029;58.708;50.190;2023-04-03T08:06:37;100366.25;;;13.68;31.40
54122;BME280;40029;58.708;50.190;2023-04-03T08:09:08;100396.63;;;13.93;31.18
54122;BME280;40029;58.708;50.190;2023-04-03T08:11:39;100399.59;;;14.06;30.76
54122;BME280;40029;58.708;50.190;2023-04-03T08:14:11;100359.59;;;13.82;30.89
54122;BME280;40029;58.708;50.190;2023-04-03T08:16:48;100416.38;;;14.22;30.55
54122;BME280;40029;58.708;50.190;2023-04-03T08:19:19;100401.50;;;14.22;30.58
54122;BME280;40029;58.708;50.190;2023-04-03T08:21:50;100385.44;;;14.30;30.23
54122;BME280;40029;58.708;50.190;2023-04-03T08:24:22;100398.50;;;14.52;30.15
54122;BME280;40029;58.708;50.190;2023-04-03T08:26:53;100410.63;;;14.55;30.09
54122;BME280;40029;58.708;50.190;2023-04-03T08:29:24;100363.22;;;14.39;29.58
54122;BME280;40029;58.708;50.190;2023-04-03T08:31:55;100405.50;;;14.72;29.44
54122;BME280;40029;58.708;50.190;2023-04-03T08:34:26;100409.97;;;14.89;29.39
54122;BME280;40029;58.708;50.190;2023-04-03T08:36:57;100411.41;;;14.96;29.12
54122;BME280;40029;58.708;50.190;2023-04-03T08:39:28;100396.28;;;15.01;28.86
54122;BME280;40029;58.708;50.190;2023-04-03T08:42:04;100362.19;;;15.01;28.46
54122;BME280;40029;58.708;50.190;2023-04-03T08:44:58;100410.47;;;15.35;27.97
54122;BME280;40029;58.708;50.190;2023-04-03T08:48:17;100402.53;;;15.54;27.25
54122;BME280;40029;58.708;50.190;2023-04-03T08:50:54;100382.28;;;15.38;27.10
54122;BME280;40029;58.708;50.190;2023-04-03T08:53:30;100364.53;;;15.43;26.86
54122;BME280;40029;58.708;50.190;2023-04-03T08:56:07;100394.94;;;15.66;26.87
54122;BME280;40029;58.708;50.190;2023-04-03T08:58:49;100423.22;;;15.97;26.56
54122;BME280;40029;58.708;50.190;2023-04-03T09:01:29;100395.75;;;15.86;25.38
54122;BME280;40029;58.708;50.190;2023-04-03T09:04:11;100423.69;;;16.06;25.81
54122;BME280;40029;58.708;50.190;2023-04-03T09:06:54;100426.69;;;15.98;26.20
54122;BME280;40029;58.708;50.190;2023-04-03T09:09:41;100377.97;;;15.91;24.88
54122;BME280;40029;58.708;50.190;2023-04-03T09:12:23;100435.34;;;16.17;24.80
54122;BME280;40029;58.708;50.190;2023-04-03T09:15:00;100381.59;;;15.88;25.59
54122;BME280;40029;58.708;50.190;2023-04-03T09:20:29;100418.94;;;16.30;24.46
54122;BME280;40029;58.708;50.190;2023-04-03T09:25:47;100425.16;;;16.62;23.36
54122;BME280;40029;58.708;50.190;2023-04-03T09:28:18;100375.78;;;16.34;24.43
54122;BME280;40029;58.708;50.190;2023-04-03T09:30:49;100385.41;;;16.50;23.90
54122;BME280;40029;58.708;50.190;2023-04-03T09:33:21;100368.59;;;16.37;23.47
54122;BME280;40029;58.708;50.190;2023-04-03T09:35:53;100377.63;;;16.65;23.54
54122;BME280;40029;58.708;50.190;2023-04-03T09:38:23;100375.53;;;16.71;22.60
54122;BME280;40029;58.708;50.190;2023-04-03T09:41:03;100424.09;;;17.15;22.20
54122;BME280;40029;58.708;50.190;2023-04-03T09:43:38;100387.06;;;17.02;22.24
54122;BME280;40029;58.708;50.190;2023-04-03T09:46:32;100377.81;;;17.11;20.82
54122;BME280;40029;58.708;50.190;2023-04-03T09:49:05;100418.69;;;17.34;21.64
54122;BME280;40029;58.708;50.190;2023-04-03T09:51:36;100426.81;;;17.45;21.44
54122;BME280;40029;58.708;50.190;2023-04-03T09:54:30;100424.75;;;17.66;20.49
54122;BME280;40029;58.708;50.190;2023-04-03T09:57:07;100390.72;;;17.31;19.81
54122;BME280;40029;58.708;50.190;2023-04-03T09:59:46;100374.91;;;17.31;20.14
54122;BME280;40029;58.708;50.190;2023-04-03T10:02:22;100422.06;;;17.67;20.52
54122;BME280;40029;58.708;50.190;2023-04-03T10:04:54;100385.34;;;17.48;20.09
54122;BME280;40029;58.708;50.190;2023-04-03T10:07:43;100413.78;;;17.73;19.37
54122;BME280;40029;58.708;50.190;2023-04-03T10:12:46;100426.88;;;17.91;19.77
54122;BME280;40029;58.708;50.190;2023-04-03T10:15:17;100431.81;;;17.97;19.46
54122;BME280;40029;58.708;50.190;2023-04-03T10:18:02;100380.53;;;17.71;18.83
54122;BME280;40029;58.708;50.190;2023-04-03T10:20:42;100424.88;;;18.10;19.29
54122;BME280;40029;58.708;50.190;2023-04-03T10:29:03;100432.38;;;18.02;18.75
54122;BME280;40029;58.708;50.190;2023-04-03T10:34:30;100434.19;;;17.86;19.04
54122;BME280;40029;58.708;50.190;2023-04-03T10:39:58;100333.88;;;17.73;18.40
54122;BME280;40029;58.708;50.190;2023-04-03T10:42:42;100409.63;;;18.15;18.62
54122;BME280;40029;58.708;50.190;2023-04-03T10:45:28;100413.84;;;18.18;18.39
54122;BME280;40029;58.708;50.190;2023-04-03T10:50:48;100380.00;;;17.96;18.10
54122;BME280;40029;58.708;50.190;2023-04-03T10:56:27;100425.13;;;18.50;16.94
54122;BME280;40029;58.708;50.190;2023-04-03T10:59:15;100422.59;;;18.63;17.38
54122;BME280;40029;58.708;50.190;2023-04-03T11:01:52;100423.09;;;18.69;16.82
54122;BME280;40029;58.708;50.190;2023-04-03T11:04:27;100381.00;;;18.38;17.01
54122;BME280;40029;58.708;50.190;2023-04-03T11:09:35;100368.66;;;18.24;16.76
54122;BME280;40029;58.708;50.190;2023-04-03T11:14:56;100374.09;;;18.21;16.73
54122;BME280;40029;58.708;50.190;2023-04-03T11:17:35;100411.53;;;18.56;16.12
54122;BME280;40029;58.708;50.190;2023-04-03T11:20:22;100423.53;;;18.62;16.03
54122;BME280;40029;58.708;50.190;2023-04-03T11:23:02;100422.16;;;18.70;16.32
54122;BME280;40029;58.708;50.190;2023-04-03T11:25:36;100418.56;;;18.71;16.18
54122;BME280;40029;58.708;50.190;2023-04-03T11:28:13;100409.28;;;18.64;15.81
54122;BME280;40029;58.708;50.190;2023-04-03T11:33:58;100433.34;;;19.03;15.88
54122;BME280;40029;58.708;50.190;2023-04-03T11:36:47;100432.22;;;19.21;15.44
54122;BME280;40029;58.708;50.190;2023-04-03T11:39:26;100388.97;;;18.95;15.76
54122;BME280;40029;58.708;50.190;2023-04-03T11:42:22;100433.03;;;19.36;15.77
54122;BME280;40029;58.708;50.190;2023-04-03T11:50:40;100432.78;;;19.53;13.30
54122;BME280;40029;58.708;50.190;2023-04-03T11:58:33;100419.97;;;19.47;14.23
54122;BME280;40029;58.708;50.190;2023-04-03T12:01:07;100375.69;;;19.23;14.81
54122;BME280;40029;58.708;50.190;2023-04-03T12:16:32;100406.09;;;19.43;15.14
54122;BME280;40029;58.708;50.190;2023-04-03T12:27:02;100422.50;;;19.07;15.38
54122;BME280;40029;58.708;50.190;2023-04-03T12:32:50;100419.31;;;19.02;15.34
54122;BME280;40029;58.708;50.190;2023-04-03T12:40:53;100370.28;;;18.55;15.78
54122;BME280;40029;58.708;50.190;2023-04-03T12:46:19;100422.16;;;18.70;15.11
54122;BME280;40029;58.708;50.190;2023-04-03T12:48:56;100395.72;;;18.42;15.71
54122;BME280;40029;58.708;50.190;2023-04-03T12:56:50;100413.28;;;18.13;16.48
54122;BME280;40029;58.708;50.190;2023-04-03T12:59:23;100331.28;;;17.57;16.29
54122;BME280;40029;58.708;50.190;2023-04-03T13:02:00;100362.09;;;17.71;16.49
54122;BME280;40029;58.708;50.190;2023-04-03T13:04:31;100331.06;;;17.46;16.98
54122;BME280;40029;58.708;50.190;2023-04-03T13:07:03;100371.72;;;17.72;17.22
54122;BME280;40029;58.708;50.190;2023-04-03T13:09:34;100362.69;;;17.46;17.03
54122;BME280;40029;58.708;50.190;2023-04-03T13:12:14;100414.72;;;17.72;16.87
54122;BME280;40029;58.708;50.190;2023-04-03T13:14:58;100384.66;;;17.61;16.91
54122;BME280;40029;58.708;50.190;2023-04-03T13:17:29;100412.00;;;17.58;16.96
54122;BME280;40029;58.708;50.190;2023-04-03T13:20:16;100419.84;;;17.60;17.06
54122;BME280;40029;58.708;50.190;2023-04-03T13:23:01;100360.31;;;17.26;17.27
54122;BME280;40029;58.708;50.190;2023-04-03T13:25:36;100409.00;;;17.50;17.13
54122;BME280;40029;58.708;50.190;2023-04-03T13:28:12;100378.56;;;17.29;17.29
54122;BME280;40029;58.708;50.190;2023-04-03T13:33:57;100400.88;;;17.37;17.43
54122;BME280;40029;58.708;50.190;2023-04-03T13:36:40;100424.78;;;17.50;18.16
54122;BME280;40029;58.708;50.190;2023-04-03T13:41:51;100366.50;;;17.24;17.92
54122;BME280;40029;58.708;50.190;2023-04-03T13:46:56;100424.78;;;17.50;17.90
54122;BME280;40029;58.708;50.190;2023-04-03T13:49:34;100421.03;;;17.54;17.57
54122;BME280;40029;58.708;50.190;2023-04-03T13:55:03;100368.53;;;17.19;17.42
54122;BME280;40029;58.708;50.190;2023-04-03T13:57:57;100417.47;;;17.39;17.22
54122;BME280;40029;58.708;50.190;2023-04-03T14:00:48;100389.13;;;17.13;17.03
54122;BME280;40029;58.708;50.190;2023-04-03T14:03:40;100374.06;;;16.99;17.66
54122;BME280;40029;58.708;50.190;2023-04-03T14:06:15;100416.13;;;17.16;17.48
54122;BME280;40029;58.708;50.190;2023-04-03T14:08:47;100418.50;;;17.05;17.79
54122;BME280;40029;58.708;50.190;2023-04-03T14:11:26;100429.72;;;17.09;17.87
54122;BME280;40029;58.708;50.190;2023-04-03T14:14:02;100422.56;;;16.95;17.87
54122;BME280;40029;58.708;50.190;2023-04-03T14:16:38;100422.63;;;16.93;18.17
54122;BME280;40029;58.708;50.190;2023-04-03T14:19:19;100421.19;;;16.88;18.19
54122;BME280;40029;58.708;50.190;2023-04-03T14:21:51;100422.00;;;16.72;18.10
54122;BME280;40029;58.708;50.190;2023-04-03T14:24:23;100418.44;;;16.56;18.15
54122;BME280;40029;58.708;50.190;2023-04-03T14:26:55;100434.91;;;16.60;18.28
54122;BME280;40029;58.708;50.190;2023-04-03T14:29:26;100385.94;;;16.24;18.26
54122;BME280;40029;58.708;50.190;2023-04-03T14:31:57;100429.06;;;16.37;18.60
54122;BME280;40029;58.708;50.190;2023-04-03T14:34:28;100403.63;;;16.20;18.39
54122;BME280;40029;58.708;50.190;2023-04-03T14:37:00;100390.97;;;15.94;19.06
54122;BME280;40029;58.708;50.190;2023-04-03T14:39:31;100424.44;;;16.08;19.27
54122;BME280;40029;58.708;50.190;2023-04-03T14:42:02;100400.81;;;15.71;19.53
54122;BME280;40029;58.708;50.190;2023-04-03T14:44:33;100407.31;;;15.64;19.54
54122;BME280;40029;58.708;50.190;2023-04-03T14:47:04;100357.84;;;15.19;20.22
54122;BME280;40029;58.708;50.190;2023-04-03T14:49:35;100407.41;;;15.44;20.23
54122;BME280;40029;58.708;50.190;2023-04-03T14:52:20;100404.59;;;15.30;20.97
54122;BME280;40029;58.708;50.190;2023-04-03T14:54:52;100398.47;;;15.10;21.34
54122;BME280;40029;58.708;50.190;2023-04-03T14:57:25;100456.44;;;15.24;21.69